Newton, West Virginia
Current Conditions -  °F | °C
As of 2:54 PM on Friday 26 Dec 2014 (Local Time) from KCRW Reporting Station
Broken Clouds Broken Clouds  
Wind Chill: 52°   Ceiling: 30000
Heat Index: 52°   Visibility: 10mi
Dew Point: 31°   Wind: 6mph
Humidity: 45%   Direction: 200°SSW
Pressure: 30.23"   Gusts: NA
Location:  38.59°N, 81.18°W
Report Text: KCRW 261954Z 20005KT 10SM FEW150 SCT230 BKN300 11/M01 A3023 RMK AO2 SLP243 T01111006 $
Loading
Personal Weather Stations






























Interactive Weather Map New forecast layout! Learn more

10-Day Weather Forecast

Advertisements
Track Severe Weather on mobile